Time;durP1;ratioP1;P1;durP2;ratioP2;P2;SDS_P1;SDS_P2;PMS_P1;PMS_P2;Temp;Humidity;BMP_temperature;BMP_pressure;BME280_temperature;BME280_humidity;BME280_pressure;Samples;Min_cycle;Max_cycle;Signal;HPM_P1;HPM_P2
2022/12/08 00:01:41;;;;;;;15.30;9.17;;;;;;;-4.59;91.78;100596.69;5053082;28;20041;-71
2022/12/08 00:04:07;;;;;;;13.03;9.17;;;;;;;-4.61;91.90;100594.16;5053183;28;20590;-70
2022/12/08 00:09:42;;;;;;;15.43;10.18;;;;;;;-4.61;91.90;100599.38;5053031;28;20140;-71
2022/12/08 00:12:10;;;;;;;14.77;10.68;;;;;;;-4.61;91.04;100598.53;5052770;28;20029;-71
2022/12/08 00:14:41;;;;;;;15.52;9.27;;;;;;;-4.64;91.66;100589.09;5052885;28;20086;-70
2022/12/08 00:17:08;;;;;;;16.30;9.93;;;;;;;-4.59;92.18;100594.09;5052617;28;20037;-71
2022/12/08 00:19:35;;;;;;;14.60;8.90;;;;;;;-4.48;91.85;100581.44;5052736;28;20484;-70
2022/12/08 00:22:02;;;;;;;13.82;9.10;;;;;;;-4.42;90.83;100588.94;5052586;28;20033;-71
2022/12/08 00:24:33;;;;;;;15.27;8.50;;;;;;;-4.41;91.08;100583.66;5052536;28;20040;-69
2022/12/08 00:26:59;;;;;;;12.02;8.52;;;;;;;-4.43;91.43;100569.06;5052248;28;20061;-70
2022/12/08 00:29:24;;;;;;;13.40;8.67;;;;;;;-4.39;91.52;100573.19;5052531;28;20106;-70
2022/12/08 00:31:50;;;;;;;14.23;9.03;;;;;;;-4.37;90.73;100574.81;5052534;28;20036;-70
2022/12/08 00:34:15;;;;;;;17.10;8.60;;;;;;;-4.42;90.78;100565.53;5052506;28;20103;-71
2022/12/08 00:36:41;;;;;;;12.90;9.47;;;;;;;-4.35;91.25;100574.72;5052402;28;20476;-70
2022/12/08 00:39:07;;;;;;;14.10;8.37;;;;;;;-4.33;91.43;100578.13;5052677;28;20017;-71
2022/12/08 00:44:17;;;;;;;15.13;8.52;;;;;;;-4.40;91.23;100568.91;5052216;28;20032;-70
2022/12/08 00:46:44;;;;;;;13.95;9.40;;;;;;;-4.41;90.56;100572.44;5052448;28;20116;-69
2022/12/08 00:49:10;;;;;;;12.90;7.75;;;;;;;-4.43;90.61;100577.69;5052130;28;20017;-69
2022/12/08 00:51:36;;;;;;;15.30;8.80;;;;;;;-4.48;90.84;100568.44;5051888;28;20039;-71
2022/12/08 00:54:02;;;;;;;13.15;8.85;;;;;;;-4.43;91.59;100576.84;5052170;28;20059;-70
2022/12/08 00:56:27;;;;;;;12.27;8.77;;;;;;;-4.41;91.34;100577.63;5052219;28;20079;-71
2022/12/08 00:58:53;;;;;;;11.17;7.93;;;;;;;-4.42;91.54;100565.53;5052287;28;20407;-70
2022/12/08 01:01:19;;;;;;;16.63;9.70;;;;;;;-4.33;91.52;100570.31;5052154;28;20033;-70
2022/12/08 01:03:44;;;;;;;18.17;9.93;;;;;;;-4.41;90.95;100554.22;5052059;28;20452;-72
2022/12/08 01:06:10;;;;;;;14.97;10.30;;;;;;;-4.32;90.92;100561.63;5052131;28;20032;-70
2022/12/08 01:08:36;;;;;;;16.33;10.30;;;;;;;-4.39;91.43;100575.78;5052115;28;20131;-70
2022/12/08 01:11:07;;;;;;;15.02;10.05;;;;;;;-4.45;91.67;100565.69;5052020;28;20234;-69
2022/12/08 01:13:33;;;;;;;14.05;8.40;;;;;;;-4.46;92.46;100579.59;5052046;28;20044;-71
2022/12/08 01:16:02;;;;;;;13.27;8.65;;;;;;;-4.45;92.09;100560.50;5051679;28;20052;-70
2022/12/08 01:18:28;;;;;;;13.40;9.07;;;;;;;-4.32;92.37;100556.41;5051675;28;20091;-71
2022/12/08 01:20:54;;;;;;;13.00;8.85;;;;;;;-4.27;92.23;100554.44;5052860;28;20029;-71
2022/12/08 01:23:19;;;;;;;12.60;9.63;;;;;;;-4.20;91.63;100545.41;5052658;28;20039;-70
2022/12/08 01:25:45;;;;;;;17.10;10.07;;;;;;;-4.17;91.16;100549.63;5051585;28;20361;-69
2022/12/08 01:28:11;;;;;;;13.17;10.10;;;;;;;-4.14;90.47;100559.88;5052089;28;20082;-70
2022/12/08 01:30:37;;;;;;;14.50;7.77;;;;;;;-4.22;91.35;100551.59;5052143;28;20136;-70
2022/12/08 01:33:03;;;;;;;12.73;9.07;;;;;;;-4.24;91.97;100543.03;5033998;28;20029;-70
2022/12/08 01:35:28;;;;;;;14.10;10.33;;;;;;;-4.25;92.10;100546.56;5052361;28;20380;-70
2022/12/08 01:37:54;;;;;;;12.17;9.93;;;;;;;-4.26;91.13;100547.47;5051698;28;20025;-70
2022/12/08 01:40:19;;;;;;;14.83;9.47;;;;;;;-4.31;91.77;100546.84;5054654;28;20024;-70
2022/12/08 01:42:45;;;;;;;15.57;8.97;;;;;;;-4.35;91.17;100533.13;5056137;28;20372;-72
2022/12/08 01:45:29;;;;;;;15.57;9.63;;;;;;;-4.35;91.59;100546.13;5037543;28;20060;-70
2022/12/08 01:48:04;;;;;;;17.85;8.90;;;;;;;-4.26;91.98;100537.06;5055464;28;20036;-71
2022/12/08 01:50:31;;;;;;;14.30;8.57;;;;;;;-4.24;91.45;100532.63;5056267;28;20390;-69
2022/12/08 01:53:21;;;;;;;15.52;10.35;;;;;;;-4.21;91.93;100538.53;5055951;28;20043;-70
2022/12/08 01:55:51;;;;;;;17.17;10.95;;;;;;;-4.25;91.62;100536.16;5055980;28;20033;-69
2022/12/08 01:58:27;;;;;;;12.68;10.07;;;;;;;-4.29;92.00;100534.63;5055266;28;20033;-70
2022/12/08 02:00:52;;;;;;;13.23;8.95;;;;;;;-4.36;91.98;100523.66;5055283;28;20044;-70
2022/12/08 02:03:30;;;;;;;18.83;10.57;;;;;;;-4.27;91.79;100538.84;5055078;28;20029;-69
2022/12/08 02:05:57;;;;;;;17.00;11.15;;;;;;;-4.33;91.81;100526.13;5055000;28;20032;-70
2022/12/08 02:08:23;;;;;;;16.00;9.27;;;;;;;-4.31;91.68;100532.09;5053949;28;20033;-71
2022/12/08 02:10:51;;;;;;;14.17;9.53;;;;;;;-4.47;92.60;100505.97;5055134;28;20040;-70
2022/12/08 02:13:19;;;;;;;13.02;9.27;;;;;;;-4.31;92.39;100529.50;5055016;28;20021;-71
2022/12/08 02:16:09;;;;;;;13.32;8.63;;;;;;;-4.26;92.26;100531.88;5037100;28;20119;-70
2022/12/08 02:18:51;;;;;;;18.63;11.52;;;;;;;-4.32;92.31;100533.03;5036942;28;20045;-69
2022/12/08 02:21:53;;;;;;;16.60;10.07;;;;;;;-4.24;92.59;100525.69;5054743;28;20087;-71
2022/12/08 02:24:35;;;;;;;14.90;9.98;;;;;;;-4.23;92.59;100527.38;5054701;28;20028;-70
2022/12/08 02:27:07;;;;;;;15.70;9.85;;;;;;;-4.22;92.26;100531.66;5054861;28;20540;-70
2022/12/08 02:29:41;;;;;;;15.15;10.32;;;;;;;-4.21;92.53;100525.53;5054723;28;20333;-71
2022/12/08 02:32:29;;;;;;;15.65;9.90;;;;;;;-4.14;93.02;100545.09;5054706;28;20060;-69
2022/12/08 02:35:13;;;;;;;21.52;10.15;;;;;;;-4.16;92.50;100526.13;5054604;28;20415;-70
2022/12/08 02:37:57;;;;;;;17.75;10.70;;;;;;;-4.16;92.35;100523.53;5054430;28;20027;-70
2022/12/08 02:40:30;;;;;;;13.40;10.45;;;;;;;-4.11;92.55;100529.34;5054912;28;20033;-69
2022/12/08 02:42:57;;;;;;;18.10;10.20;;;;;;;-4.11;92.85;100524.16;5055270;28;20033;-69
2022/12/08 02:45:32;;;;;;;15.32;10.27;;;;;;;-4.16;92.54;100523.53;5055171;28;20114;-72
2022/12/08 02:47:59;;;;;;;14.77;9.65;;;;;;;-4.12;93.00;100519.88;5037373;28;20040;-71
2022/12/08 02:50:25;;;;;;;14.10;9.55;;;;;;;-4.14;92.92;100524.31;5054663;28;20036;-69
2022/12/08 02:52:51;;;;;;;18.63;12.02;;;;;;;-4.12;93.00;100519.03;5054291;28;20028;-70
2022/12/08 02:55:31;;;;;;;17.27;10.87;;;;;;;-4.11;93.76;100518.94;5036449;28;20379;-70
2022/12/08 02:58:23;;;;;;;18.80;11.40;;;;;;;-4.09;93.80;100513.66;5054132;28;20029;-69
2022/12/08 03:01:08;;;;;;;16.90;11.85;;;;;;;-4.03;92.81;100521.19;5035927;28;20525;-70
2022/12/08 03:03:42;;;;;;;23.17;12.52;;;;;;;-4.09;92.85;100527.50;5054223;28;20098;-69
2022/12/08 03:06:25;;;;;;;17.50;11.30;;;;;;;-4.12;93.10;100512.06;5053924;28;20040;-69
2022/12/08 03:09:13;;;;;;;23.38;10.10;;;;;;;-3.98;93.74;100531.38;5053866;28;20063;-69
2022/12/08 03:11:46;;;;;;;16.40;11.32;;;;;;;-3.96;92.60;100521.72;5036419;28;20453;-70
2022/12/08 03:14:16;;;;;;;17.35;10.43;;;;;;;-4.01;93.03;100521.13;5054087;28;20028;-70
2022/12/08 03:16:44;;;;;;;16.58;10.82;;;;;;;-4.05;93.21;100523.00;5036234;28;20036;-70
2022/12/08 03:19:26;;;;;;;15.85;11.48;;;;;;;-4.05;92.70;100517.78;5053677;28;20214;-69
2022/12/08 03:22:01;;;;;;;19.73;10.48;;;;;;;-3.99;93.05;100517.50;5036111;28;20488;-70
2022/12/08 03:24:29;;;;;;;16.60;10.80;;;;;;;-4.06;92.87;100508.31;5053694;28;20124;-70
2022/12/08 03:27:01;;;;;;;11.75;7.25;;;;;;;-4.00;92.72;100515.00;5053566;28;20029;-69
2022/12/08 03:29:29;;;;;;;16.20;11.10;;;;;;;-4.08;92.64;100512.75;5035863;28;20435;-69
2022/12/08 03:32:05;;;;;;;15.85;11.27;;;;;;;-4.03;93.10;100509.94;5053147;28;20075;-69
2022/12/08 03:34:31;;;;;;;20.67;13.50;;;;;;;-4.07;92.43;100509.22;5053736;28;20131;-69
2022/12/08 03:37:00;;;;;;;17.90;10.03;;;;;;;-4.01;93.40;100524.56;5053666;28;20060;-69
2022/12/08 03:39:25;;;;;;;15.75;10.70;;;;;;;-4.02;93.99;100522.03;5053720;28;20055;-72
2022/12/08 03:41:51;;;;;;;16.03;10.33;;;;;;;-4.04;93.04;100498.69;5053373;28;20457;-70
2022/12/08 03:44:17;;;;;;;17.87;11.07;;;;;;;-4.08;93.30;100492.78;5053070;28;20037;-70
2022/12/08 03:46:42;;;;;;;16.33;9.53;;;;;;;-4.01;93.20;100508.94;5053295;28;20029;-69
2022/12/08 03:49:08;;;;;;;17.43;10.87;;;;;;;-4.00;92.87;100509.78;5053216;28;20032;-74
2022/12/08 03:51:33;;;;;;;16.77;10.80;;;;;;;-3.97;92.88;100517.44;5053406;28;20024;-71
2022/12/08 03:53:59;;;;;;;17.27;10.10;;;;;;;-3.95;93.21;100513.00;5053191;28;20017;-70
2022/12/08 03:56:30;;;;;;;17.30;11.63;;;;;;;-4.02;92.48;100506.44;5052977;28;20140;-72
2022/12/08 03:58:56;;;;;;;15.77;9.57;;;;;;;-4.07;93.02;100507.47;5052900;28;20078;-72
2022/12/08 04:01:22;;;;;;;16.60;11.27;;;;;;;-4.12;93.62;100506.03;5052459;28;20041;-73
2022/12/08 04:03:48;;;;;;;15.02;9.82;;;;;;;-4.09;93.56;100506.69;5052886;28;20032;-72
2022/12/08 04:06:15;;;;;;;16.60;11.93;;;;;;;-4.18;94.05;100477.72;5053080;28;20029;-72
2022/12/08 04:08:41;;;;;;;15.75;10.63;;;;;;;-4.06;93.34;100496.16;5052680;28;20127;-71
2022/12/08 04:11:06;;;;;;;17.20;11.37;;;;;;;-4.04;93.13;100497.84;5052714;28;20434;-71
2022/12/08 04:13:36;;;;;;;18.33;10.80;;;;;;;-4.02;93.56;100490.81;5052514;28;20262;-73
2022/12/08 04:16:03;;;;;;;15.10;10.02;;;;;;;-4.06;93.93;100490.94;5054397;28;20040;-79
2022/12/08 04:18:31;;;;;;;13.90;9.88;;;;;;;-4.03;93.94;100486.53;5060432;28;20479;-75
2022/12/08 04:20:57;;;;;;;14.65;10.55;;;;;;;-4.10;93.54;100467.78;5064493;28;20029;-78
2022/12/08 04:23:22;;;;;;;15.70;10.37;;;;;;;-3.95;92.95;100481.78;5035785;28;20490;-76
2022/12/08 04:25:50;;;;;;;18.07;10.07;;;;;;;-4.07;92.83;100476.25;5053552;28;20082;-73
2022/12/08 04:28:15;;;;;;;16.30;10.20;;;;;;;-4.02;92.93;100486.47;5052825;28;20033;-72
2022/12/08 04:30:41;;;;;;;16.23;11.17;;;;;;;-4.03;93.22;100476.97;5053169;28;20033;-72
2022/12/08 04:33:06;;;;;;;18.57;11.43;;;;;;;-4.01;92.74;100469.94;5034945;28;20024;-75
2022/12/08 04:35:32;;;;;;;18.23;11.27;;;;;;;-4.01;92.36;100467.34;5035043;28;20028;-74
2022/12/08 04:37:58;;;;;;;19.37;11.07;;;;;;;-4.07;92.24;100472.81;5052625;28;20063;-73
2022/12/08 04:40:23;;;;;;;15.07;11.10;;;;;;;-4.09;92.63;100459.88;5052408;28;20124;-73
2022/12/08 04:42:49;;;;;;;16.63;11.13;;;;;;;-4.02;92.48;100473.44;5052318;28;20025;-71
2022/12/08 04:45:14;;;;;;;18.37;11.50;;;;;;;-4.04;92.29;100472.69;5052692;28;20024;-75
2022/12/08 04:47:40;;;;;;;15.50;10.40;;;;;;;-4.05;92.76;100460.56;5053485;28;20483;-76
2022/12/08 04:50:07;;;;;;;15.47;10.47;;;;;;;-4.03;92.30;100465.72;5035948;28;20025;-74
2022/12/08 04:52:33;;;;;;;17.10;10.18;;;;;;;-4.03;92.13;100469.16;5052467;28;20029;-76
2022/12/08 04:54:58;;;;;;;16.73;11.23;;;;;;;-3.99;92.59;100469.84;5052782;28;20033;-75
2022/12/08 04:57:24;;;;;;;14.53;10.60;;;;;;;-3.99;91.80;100464.66;5052641;28;20025;-74
2022/12/08 04:59:49;;;;;;;18.17;11.60;;;;;;;-3.99;92.49;100449.03;5052680;28;20020;-73
2022/12/08 05:02:15;;;;;;;14.80;10.67;;;;;;;-3.99;92.07;100459.44;5052553;28;20025;-72
2022/12/08 05:04:40;;;;;;;14.23;10.63;;;;;;;-4.05;91.62;100460.56;5052150;28;20485;-75
2022/12/08 05:07:06;;;;;;;18.03;11.37;;;;;;;-4.09;91.67;100459.88;5052715;28;20025;-73
2022/12/08 05:09:31;;;;;;;16.37;10.07;;;;;;;-4.15;91.91;100448.97;5034853;28;20110;-73
2022/12/08 05:11:57;;;;;;;15.17;10.50;;;;;;;-4.12;92.60;100457.44;5050249;28;20025;-72
2022/12/08 05:14:22;;;;;;;18.43;11.10;;;;;;;-4.02;92.25;100455.25;5039521;28;20358;-73
2022/12/08 05:16:48;;;;;;;14.10;10.17;;;;;;;-4.03;91.67;100442.31;5031617;28;20029;-73
2022/12/08 05:19:15;;;;;;;12.90;9.30;;;;;;;-3.96;90.41;100449.72;5014305;28;20042;-74
2022/12/08 05:21:42;;;;;;;14.27;10.68;;;;;;;-4.04;90.48;100441.47;5031731;28;20060;-73
2022/12/08 05:24:08;;;;;;;14.60;10.40;;;;;;;-4.04;90.50;100445.84;5031455;28;20026;-74
2022/12/08 05:26:33;;;;;;;13.47;9.90;;;;;;;-4.09;90.87;100435.66;5031535;28;20034;-71
2022/12/08 05:28:59;;;;;;;15.67;10.33;;;;;;;-4.07;90.43;100432.03;5032296;28;20034;-74
2022/12/08 05:31:25;;;;;;;16.63;9.80;;;;;;;-4.03;90.48;100447.53;5032152;28;20428;-75
2022/12/08 05:33:51;;;;;;;18.43;10.80;;;;;;;-4.07;90.87;100441.59;5031821;28;20036;-73
2022/12/08 05:36:17;;;;;;;13.05;9.27;;;;;;;-4.12;92.30;100457.44;5031766;28;20073;-73
2022/12/08 05:38:44;;;;;;;15.02;10.02;;;;;;;-4.22;92.47;100438.03;5032180;28;20034;-75
2022/12/08 05:41:14;;;;;;;17.73;10.18;;;;;;;-4.19;92.88;100448.28;5031538;28;20033;-74
2022/12/08 05:43:39;;;;;;;16.70;10.75;;;;;;;-4.20;92.51;100457.00;5031993;28;20030;-77
2022/12/08 05:46:06;;;;;;;16.33;10.23;;;;;;;-4.26;93.48;100457.31;5031231;28;20030;-71
2022/12/08 05:48:33;;;;;;;14.48;9.95;;;;;;;-4.30;93.63;100447.16;5031817;28;20026;-70
2022/12/08 05:51:01;;;;;;;18.65;10.85;;;;;;;-4.22;94.91;100456.25;5031540;28;20435;-72
2022/12/08 05:53:26;;;;;;;16.55;9.75;;;;;;;-4.17;94.81;100458.59;5031497;28;20049;-72
2022/12/08 05:55:55;;;;;;;18.77;10.60;;;;;;;-4.09;94.08;100464.25;5031781;28;20076;-77
2022/12/08 05:58:22;;;;;;;13.80;9.23;;;;;;;-4.04;93.72;100456.25;5031706;28;20032;-74
2022/12/08 06:00:48;;;;;;;17.30;9.98;;;;;;;-4.04;94.01;100454.47;5031393;28;20026;-71
2022/12/08 06:03:16;;;;;;;15.82;10.15;;;;;;;-4.09;93.53;100449.50;5013422;28;20469;-73
2022/12/08 06:05:43;;;;;;;16.05;9.88;;;;;;;-4.15;94.17;100449.81;5031376;28;20490;-75
2022/12/08 06:08:09;;;;;;;15.38;10.85;;;;;;;-4.19;93.44;100442.25;5031298;28;20057;-73
2022/12/08 06:10:37;;;;;;;15.30;10.60;;;;;;;-4.18;93.51;100460.38;5030867;28;20132;-74
2022/12/08 06:13:03;;;;;;;13.13;9.60;;;;;;;-4.18;93.69;100444.75;5029650;28;20881;-72
2022/12/08 06:15:29;;;;;;;15.53;10.40;;;;;;;-4.20;93.38;100456.16;5031495;28;20065;-74
2022/12/08 06:17:54;;;;;;;17.47;10.00;;;;;;;-4.20;93.37;100457.00;5034097;28;20030;-74
2022/12/08 06:20:21;;;;;;;21.40;11.60;;;;;;;-4.22;93.17;100463.19;5032734;28;20432;-71
2022/12/08 06:22:46;;;;;;;20.42;10.02;;;;;;;-4.23;93.74;100451.97;5016270;28;20026;-74
2022/12/08 06:25:12;;;;;;;14.63;10.20;;;;;;;-4.28;93.69;100451.34;5034425;28;20353;-71
2022/12/08 06:27:38;;;;;;;21.90;11.80;;;;;;;-4.23;93.39;100458.91;5019282;28;20064;-73
2022/12/08 06:30:08;;;;;;;17.80;11.20;;;;;;;-4.24;94.19;100452.88;5036687;28;20116;-74
2022/12/08 06:32:36;;;;;;;15.88;10.35;;;;;;;-4.21;93.59;100450.13;5037617;28;20037;-75
2022/12/08 06:35:02;;;;;;;19.10;13.27;;;;;;;-4.17;92.75;100451.63;5020562;28;20397;-72
2022/12/08 06:37:29;;;;;;;15.80;11.07;;;;;;;-4.41;93.00;100426.84;5045131;28;20040;-73
2022/12/08 06:39:54;;;;;;;16.47;10.20;;;;;;;-4.19;93.35;100450.88;5046911;28;20033;-73
2022/12/08 06:45:04;;;;;;;17.27;11.40;;;;;;;-4.19;92.98;100443.06;5045114;28;20461;-71
2022/12/08 06:47:30;;;;;;;17.70;11.45;;;;;;;-4.27;93.02;100423.59;5043912;28;20025;-72
2022/12/08 06:49:56;;;;;;;22.97;12.23;;;;;;;-4.23;93.68;100453.72;5041854;28;20113;-73
2022/12/08 06:52:21;;;;;;;17.17;11.13;;;;;;;-4.27;93.93;100428.78;5020804;28;20025;-72
2022/12/08 06:54:47;;;;;;;18.80;12.17;;;;;;;-4.34;93.48;100428.22;5035618;28;20033;-72
2022/12/08 06:57:12;;;;;;;15.57;11.10;;;;;;;-4.26;94.05;100441.72;5034653;28;20033;-74
2022/12/08 06:59:40;;;;;;;19.80;11.33;;;;;;;-4.34;94.10;100435.19;5034651;28;20025;-73
2022/12/08 07:02:05;;;;;;;15.27;11.07;;;;;;;-4.35;95.11;100444.75;5034388;28;20032;-72
2022/12/08 07:04:31;;;;;;;15.93;10.53;;;;;;;-4.30;94.40;100444.53;5034634;28;20033;-73
2022/12/08 07:06:59;;;;;;;18.33;11.50;;;;;;;-4.23;94.74;100436.34;5034610;28;20428;-72
2022/12/08 07:09:24;;;;;;;18.38;11.98;;;;;;;-4.22;93.86;100432.84;5020101;28;20025;-71
2022/12/08 07:11:50;;;;;;;17.77;11.83;;;;;;;-4.33;94.10;100435.13;5047769;28;20045;-70
2022/12/08 07:14:16;;;;;;;15.67;10.20;;;;;;;-4.36;94.25;100446.50;5039963;28;20025;-72
2022/12/08 07:16:41;;;;;;;19.93;11.97;;;;;;;-4.36;94.39;100451.69;5040993;28;20435;-73
2022/12/08 07:19:07;;;;;;;16.17;10.93;;;;;;;-4.44;94.55;100455.59;5019352;28;20545;-74
2022/12/08 07:21:33;;;;;;;19.77;11.97;;;;;;;-4.38;95.24;100452.69;5018052;28;20029;-72
2022/12/08 07:24:03;;;;;;;21.23;12.73;;;;;;;-4.34;94.76;100449.03;5037878;28;20021;-74
2022/12/08 07:26:29;;;;;;;18.98;12.10;;;;;;;-4.38;94.39;100442.31;5043339;28;20080;-73
2022/12/08 07:28:54;;;;;;;18.43;11.00;;;;;;;-4.32;94.45;100448.97;5043207;28;20021;-73
2022/12/08 07:31:23;;;;;;;16.13;10.57;;;;;;;-4.28;94.19;100451.34;5042997;28;20061;-74
2022/12/08 07:33:49;;;;;;;20.88;10.93;;;;;;;-4.27;94.33;100455.63;5043460;28;20093;-73
2022/12/08 07:36:15;;;;;;;17.88;10.18;;;;;;;-4.28;93.74;100459.16;5040958;28;20120;-74
2022/12/08 07:38:42;;;;;;;15.02;10.45;;;;;;;-4.25;94.58;100463.34;5019809;28;20029;-76
2022/12/08 07:41:18;;;;;;;17.50;10.77;;;;;;;-4.40;93.81;100444.13;5036321;28;20037;-73
2022/12/08 07:43:44;;;;;;;14.38;10.15;;;;;;;-4.32;94.18;100451.59;5033747;28;20025;-72
2022/12/08 07:46:16;;;;;;;15.27;9.57;;;;;;;-4.30;93.98;100460.16;5033454;28;20042;-75
2022/12/08 07:48:41;;;;;;;17.52;12.63;;;;;;;-4.23;93.72;100457.16;5033883;28;20026;-74
2022/12/08 07:51:08;;;;;;;16.63;10.73;;;;;;;-4.28;93.12;100447.91;5033525;28;20037;-75
2022/12/08 07:53:33;;;;;;;28.70;10.65;;;;;;;-4.34;93.66;100449.03;5033242;28;20116;-74
2022/12/08 07:55:59;;;;;;;19.77;12.40;;;;;;;-4.34;93.90;100442.97;5033212;28;20389;-73
2022/12/08 07:58:25;;;;;;;17.37;11.10;;;;;;;-4.23;94.80;100451.13;5015317;28;20025;-73
2022/12/08 08:00:52;;;;;;;15.25;9.95;;;;;;;-4.13;93.90;100437.56;5033247;28;20113;-72
2022/12/08 08:03:17;;;;;;;19.45;11.13;;;;;;;-4.02;93.33;100451.81;5032566;28;20038;-73
2022/12/08 08:05:43;;;;;;;15.63;11.27;;;;;;;-4.09;91.95;100439.09;5016477;28;20033;-74
2022/12/08 08:08:20;;;;;;;16.87;11.23;;;;;;;-4.14;93.30;100440.25;5033790;28;20484;-72
2022/12/08 08:10:46;;;;;;;19.05;10.43;;;;;;;-4.16;93.10;100442.09;5015932;28;20033;-74
2022/12/08 08:13:12;;;;;;;14.80;9.77;;;;;;;-4.03;93.05;100444.91;5016670;28;20120;-73
2022/12/08 08:15:41;;;;;;;16.67;10.30;;;;;;;-4.06;92.44;100438.94;5034986;28;20021;-73
2022/12/08 08:18:08;;;;;;;15.93;10.40;;;;;;;-4.09;92.43;100427.84;5051288;28;20033;-73
2022/12/08 08:20:38;;;;;;;15.38;10.80;;;;;;;-3.93;91.96;100433.13;5055032;28;20041;-73
2022/12/08 08:23:04;;;;;;;18.17;12.80;;;;;;;-3.87;92.46;100440.59;5053615;28;20052;-75
2022/12/08 08:25:29;;;;;;;14.40;10.70;;;;;;;-3.86;91.97;100437.91;5046338;28;20029;-74
2022/12/08 08:27:55;;;;;;;16.50;11.43;;;;;;;-3.82;92.09;100441.19;5037215;28;20215;-72
2022/12/08 08:30:20;;;;;;;19.80;10.33;;;;;;;-3.81;91.62;100432.47;5035150;28;20022;-73
2022/12/08 08:32:46;;;;;;;16.20;9.63;;;;;;;-3.83;91.21;100427.34;5033423;28;20032;-73
2022/12/08 08:35:14;;;;;;;16.40;10.63;;;;;;;-3.90;92.20;100410.38;5032735;28;20033;-73
2022/12/08 08:37:39;;;;;;;19.20;11.67;;;;;;;-3.79;91.89;100435.84;5015114;28;20033;-74
2022/12/08 08:40:05;;;;;;;19.10;10.97;;;;;;;-3.98;91.63;100409.09;5032768;28;20029;-72
2022/12/08 08:42:30;;;;;;;15.90;10.90;;;;;;;-3.92;92.27;100430.44;5032833;28;20525;-73
2022/12/08 08:44:56;;;;;;;13.60;10.00;;;;;;;-4.00;91.98;100422.19;5014667;28;20288;-74
2022/12/08 08:47:22;;;;;;;19.47;11.77;;;;;;;-4.06;92.67;100427.69;5032706;28;20029;-73
2022/12/08 08:49:47;;;;;;;17.73;10.43;;;;;;;-4.16;92.06;100401.31;5032330;28;20025;-73
2022/12/08 08:52:13;;;;;;;16.03;11.07;;;;;;;-3.93;92.75;100422.72;5032407;28;20380;-74
2022/12/08 08:54:38;;;;;;;15.83;11.10;;;;;;;-3.84;91.71;100417.03;5032111;28;20087;-73
2022/12/08 08:57:04;;;;;;;17.93;9.50;;;;;;;-3.82;91.51;100415.19;5014733;28;20034;-74
2022/12/08 08:59:30;;;;;;;17.63;11.90;;;;;;;-3.82;91.49;100409.97;5032517;28;20481;-73
2022/12/08 09:01:55;;;;;;;16.70;10.90;;;;;;;-3.92;91.43;100420.03;5014763;28;20465;-71
2022/12/08 09:04:22;;;;;;;15.37;10.50;;;;;;;-3.91;91.37;100429.50;5032428;28;20425;-73
2022/12/08 09:06:48;;;;;;;16.05;10.48;;;;;;;-3.97;91.89;100426.41;5032238;28;20053;-75
2022/12/08 09:09:15;;;;;;;17.15;10.77;;;;;;;-3.97;93.00;100426.41;5031874;28;20037;-73
2022/12/08 09:11:41;;;;;;;17.40;10.95;;;;;;;-3.94;91.86;100408.03;5032232;28;20132;-73
2022/12/08 09:14:07;;;;;;;12.87;10.20;;;;;;;-3.88;91.77;100420.72;5032416;28;20121;-74
2022/12/08 09:16:32;;;;;;;16.47;10.20;;;;;;;-4.01;92.86;100414.47;5032261;28;20314;-72
2022/12/08 09:18:59;;;;;;;20.43;12.27;;;;;;;-3.99;93.18;100423.03;5032052;28;20041;-74
2022/12/08 09:21:25;;;;;;;15.52;11.27;;;;;;;-3.99;92.71;100412.63;5014100;28;20068;-72
2022/12/08 09:23:55;;;;;;;16.17;11.63;;;;;;;-3.94;93.17;100421.03;5032085;28;20080;-73
2022/12/08 09:26:22;;;;;;;17.05;11.43;;;;;;;-3.94;93.21;100405.44;5032011;28;20617;-75
2022/12/08 09:28:52;;;;;;;19.13;12.43;;;;;;;-3.82;93.25;100409.97;5031970;28;20068;-72
2022/12/08 09:31:19;;;;;;;19.05;11.18;;;;;;;-3.77;92.29;100402.75;5032092;28;20065;-73
2022/12/08 09:33:45;;;;;;;19.73;13.13;;;;;;;-3.75;92.23;100411.38;5032002;28;20040;-73
2022/12/08 09:36:10;;;;;;;27.37;12.10;;;;;;;-3.87;92.10;100409.38;5032174;28;20033;-73
2022/12/08 09:38:38;;;;;;;17.10;11.83;;;;;;;-3.92;91.91;100399.22;5031804;28;20152;-73
2022/12/08 09:41:13;;;;;;;16.13;11.43;;;;;;;-3.97;92.64;100401.22;5032103;28;20044;-73
2022/12/08 09:43:56;;;;;;;16.77;10.55;;;;;;;-3.96;92.62;100397.69;5032188;28;20029;-73
2022/12/08 09:46:24;;;;;;;17.33;10.45;;;;;;;-3.88;92.78;100389.50;5039204;28;20097;-73
2022/12/08 09:48:54;;;;;;;17.65;11.88;;;;;;;-3.83;92.66;100388.31;5047632;28;20033;-71
2022/12/08 09:51:24;;;;;;;18.10;10.43;;;;;;;-3.67;92.39;100387.53;5036797;28;20075;-73
2022/12/08 09:54:06;;;;;;;16.45;10.82;;;;;;;-3.82;92.37;100373.56;5032203;28;20116;-73
2022/12/08 09:56:35;;;;;;;19.17;11.50;;;;;;;-3.71;92.51;100392.06;5032271;28;20071;-73
2022/12/08 09:59:22;;;;;;;21.75;12.70;;;;;;;-3.63;92.21;100399.44;5031832;28;20025;-72
2022/12/08 10:01:48;;;;;;;15.23;10.93;;;;;;;-3.68;91.43;100402.31;5035516;28;20487;-73
2022/12/08 10:04:22;;;;;;;20.63;11.17;;;;;;;-3.66;91.93;100403.06;5036109;28;20025;-74
2022/12/08 10:07:30;;;;;;;20.33;11.80;;;;;;;-3.72;92.91;100400.78;5018050;28;20361;-74
2022/12/08 10:10:17;;;;;;;20.70;11.60;;;;;;;-3.70;92.72;100398.09;5030718;28;20072;-74
2022/12/08 10:12:54;;;;;;;15.48;10.55;;;;;;;-3.70;93.16;100388.53;5035490;28;20036;-75
2022/12/08 10:15:29;;;;;;;19.65;11.75;;;;;;;-3.66;92.76;100390.03;5035482;28;20037;-73
2022/12/08 10:17:56;;;;;;;12.35;10.07;;;;;;;-3.68;92.60;100391.91;5035465;28;20034;-74
2022/12/08 10:20:30;;;;;;;14.38;10.13;;;;;;;-3.72;92.63;100390.38;5035275;28;20369;-73
2022/12/08 10:23:02;;;;;;;14.15;10.70;;;;;;;-3.83;93.43;100384.88;5035533;28;20121;-73
2022/12/08 10:25:35;;;;;;;18.00;11.43;;;;;;;-3.83;92.68;100382.28;5035363;28;20041;-72
2022/12/08 10:28:01;;;;;;;16.98;10.85;;;;;;;-3.83;93.35;100385.72;5035455;28;20036;-73
2022/12/08 10:30:26;;;;;;;17.07;12.13;;;;;;;-3.78;93.48;100395.88;5035142;28;20037;-74
2022/12/08 10:32:53;;;;;;;14.83;10.43;;;;;;;-3.86;93.04;100380.69;5035439;28;20034;-72
2022/12/08 10:35:21;;;;;;;15.15;11.20;;;;;;;-4.12;92.98;100349.97;5035814;28;20022;-78
2022/12/08 10:38:02;;;;;;;15.55;10.73;;;;;;;-3.85;92.91;100384.97;5035180;28;20072;-77
2022/12/08 10:40:37;;;;;;;19.63;10.65;;;;;;;-3.76;93.97;100386.22;5035130;28;20030;-73
2022/12/08 10:43:04;;;;;;;18.17;11.27;;;;;;;-3.69;93.01;100390.22;5034529;28;20029;-69
2022/12/08 10:45:37;;;;;;;17.23;11.07;;;;;;;-3.67;92.46;100372.75;5017310;28;20057;-71
2022/12/08 10:48:04;;;;;;;17.50;11.15;;;;;;;-3.61;92.71;100388.03;5034904;28;20120;-72
2022/12/08 10:50:54;;;;;;;14.95;10.55;;;;;;;-3.54;93.40;100391.97;5034819;28;20037;-74
2022/12/08 10:53:29;;;;;;;16.25;10.27;;;;;;;-3.57;93.03;100381.75;5029314;28;20022;-72
2022/12/08 10:56:00;;;;;;;16.52;10.85;;;;;;;-3.45;93.17;100388.06;5034541;28;20091;-70
2022/12/08 10:58:28;;;;;;;16.23;10.77;;;;;;;-3.51;92.89;100386.59;5034567;28;20770;-74
2022/12/08 11:01:04;;;;;;;17.55;11.25;;;;;;;-3.66;93.43;100379.63;5034533;28;20473;-72
2022/12/08 11:03:34;;;;;;;16.48;10.60;;;;;;;-3.64;94.68;100385.59;5017314;28;20052;-75
2022/12/08 11:06:08;;;;;;;16.00;10.90;;;;;;;-3.63;94.94;100374.25;5034598;28;20091;-70
2022/12/08 11:08:45;;;;;;;18.90;11.60;;;;;;;-3.64;94.78;100382.16;5034221;28;20021;-72
2022/12/08 11:11:11;;;;;;;15.95;10.75;;;;;;;-3.62;95.52;100381.16;5016456;28;20025;-71
2022/12/08 11:13:43;;;;;;;16.70;12.13;;;;;;;-3.57;95.82;100375.69;5034057;28;20033;-74
2022/12/08 11:16:12;;;;;;;17.70;11.95;;;;;;;-3.66;94.95;100379.63;5034331;28;20377;-72
2022/12/08 11:19:05;;;;;;;19.92;12.32;;;;;;;-3.67;95.30;100383.16;5033911;28;20037;-71
2022/12/08 11:21:41;;;;;;;16.55;10.30;;;;;;;-3.89;95.61;100348.78;5034986;28;20060;-72
2022/12/08 11:24:39;;;;;;;19.67;9.73;;;;;;;-3.69;95.61;100378.97;5034675;28;20073;-73
2022/12/08 11:27:05;;;;;;;17.10;10.73;;;;;;;-3.72;95.93;100358.31;5040996;28;20036;-73
2022/12/08 11:29:42;;;;;;;17.52;12.40;;;;;;;-3.58;95.24;100372.25;5034699;28;20030;-80